Time;durP1;ratioP1;P1;durP2;ratioP2;P2;SDS_P1;SDS_P2;PMS_P1;PMS_P2;Temp;Humidity;BMP_temperature;BMP_pressure;BME280_temperature;BME280_humidity;BME280_pressure;Samples;Min_cycle;Max_cycle;Signal;HPM_P1;HPM_P2
2023/04/25 00:02:31;;;;;;;18.13;4.55;;;6.70;99.90;;;;;;5117181;27;20087;-83
2023/04/25 00:05:22;;;;;;;21.05;4.30;;;6.60;99.90;;;;;;5117215;27;20094;-83
2023/04/25 00:08:30;;;;;;;18.83;3.90;;;6.60;99.90;;;;;;5132197;27;20061;-82
2023/04/25 00:15:06;;;;;;;18.73;4.38;;;6.70;99.90;;;;;;4997389;28;20058;-82
2023/04/25 00:18:36;;;;;;;17.55;4.38;;;6.70;99.90;;;;;;4988968;28;20105;-82
2023/04/25 00:22:28;;;;;;;19.25;4.45;;;6.70;99.90;;;;;;4921581;29;20054;-79
2023/04/25 00:26:08;;;;;;;23.05;5.32;;;6.70;99.90;;;;;;4926076;29;20067;-82
2023/04/25 00:33:41;;;;;;;19.75;4.45;;;6.70;99.90;;;;;;4930547;29;20115;-82
2023/04/25 00:36:51;;;;;;;18.38;4.25;;;6.70;99.90;;;;;;4914375;29;20107;-82
2023/04/25 00:40:39;;;;;;;17.00;4.07;;;6.60;99.90;;;;;;4930293;29;20519;-82
2023/04/25 00:43:30;;;;;;;14.25;4.88;;;6.50;99.90;;;;;;4930234;29;20051;-81
2023/04/25 00:50:04;;;;;;;18.95;6.38;;;6.50;99.90;;;;;;4955799;28;20050;-82
2023/04/25 00:56:34;;;;;;;16.23;5.07;;;6.50;99.90;;;;;;4992668;28;20795;-83
2023/04/25 01:00:06;;;;;;;22.60;4.80;;;6.50;99.90;;;;;;4986518;28;20109;-82
2023/04/25 01:03:07;;;;;;;18.17;4.47;;;6.50;99.90;;;;;;4972694;28;20161;-81
2023/04/25 01:06:09;;;;;;;19.42;4.40;;;6.50;99.90;;;;;;5047105;28;20098;-82
2023/04/25 01:09:21;;;;;;;21.40;4.72;;;6.50;99.90;;;;;;5033112;28;20055;-82
2023/04/25 01:12:24;;;;;;;19.42;4.78;;;6.60;99.90;;;;;;5016886;28;20142;-83
2023/04/25 01:16:01;;;;;;;16.75;4.70;;;6.40;99.90;;;;;;5047136;28;20044;-82
2023/04/25 01:22:20;;;;;;;27.73;4.30;;;6.40;99.90;;;;;;4987716;28;20181;-81
2023/04/25 01:25:29;;;;;;;19.65;4.82;;;6.40;99.90;;;;;;4972720;28;20055;-82
2023/04/25 01:28:18;;;;;;;23.95;4.47;;;5.90;99.90;;;;;;5006693;28;20476;-83
2023/04/25 01:31:30;;;;;;;17.67;4.18;;;6.80;99.90;;;;;;4961269;28;20391;-83
2023/04/25 01:34:58;;;;;;;14.52;3.80;;;6.30;99.90;;;;;;5034374;28;20202;-82
2023/04/25 01:38:31;;;;;;;12.85;3.30;;;6.30;99.90;;;;;;5001783;28;20060;-83
2023/04/25 01:41:32;;;;;;;17.20;4.13;;;6.20;99.90;;;;;;5066157;28;20052;-81
2023/04/25 01:44:54;;;;;;;17.80;4.10;;;6.10;99.90;;;;;;5102633;28;20074;-81
2023/04/25 01:51:18;;;;;;;22.13;3.97;;;5.90;99.90;;;;;;5066514;28;20052;-82
2023/04/25 01:54:29;;;;;;;19.85;3.92;;;5.90;99.90;;;;;;5054623;28;20140;-82
2023/04/25 01:57:45;;;;;;;15.13;3.58;;;5.80;99.90;;;;;;5007155;28;20798;-82
2023/04/25 02:00:53;;;;;;;17.25;3.75;;;5.80;99.90;;;;;;5041545;28;20061;-82
2023/04/25 02:04:18;;;;;;;22.63;4.03;;;5.90;99.90;;;;;;5055360;28;20132;-82
2023/04/25 02:07:25;;;;;;;15.95;3.83;;;5.60;99.90;;;;;;5013068;28;20045;-83
2023/04/25 02:10:41;;;;;;;15.38;3.30;;;5.90;99.90;;;;;;4977098;28;20049;-82
2023/04/25 02:13:42;;;;;;;22.98;4.18;;;5.90;99.90;;;;;;5017315;28;20083;-82
2023/04/25 02:16:47;;;;;;;21.38;4.18;;;6.00;99.90;;;;;;5040805;28;20124;-82
2023/04/25 02:20:00;;;;;;;12.75;4.15;;;4.50;99.90;;;;;;5025744;28;20064;-83
2023/04/25 02:31:05;;;;;;;13.75;4.78;;;5.90;99.90;;;;;;5010009;28;20210;-82
2023/04/25 02:37:22;;;;;;;14.60;2.92;;;5.90;99.90;;;;;;5010358;28;20510;-83
2023/04/25 02:40:29;;;;;;;24.27;3.33;;;5.90;99.90;;;;;;4956929;28;20098;-81
2023/04/25 02:44:01;;;;;;;13.13;3.70;;;5.90;99.90;;;;;;4968414;28;20062;-82
2023/04/25 02:47:42;;;;;;;19.95;3.50;;;5.80;99.90;;;;;;4983955;28;20065;-83
2023/04/25 02:50:40;;;;;;;14.80;3.08;;;5.80;99.90;;;;;;4978710;28;20128;-80
2023/04/25 02:56:37;;;;;;;12.60;4.18;;;5.80;99.90;;;;;;5003283;28;20047;-82
2023/04/25 02:59:47;;;;;;;11.02;2.75;;;5.80;99.90;;;;;;4983827;28;20056;-82
2023/04/25 03:02:58;;;;;;;14.73;3.58;;;5.80;99.90;;;;;;5048902;28;20510;-82
2023/04/25 03:06:10;;;;;;;11.80;2.63;;;5.80;99.90;;;;;;5065208;28;20831;-82
2023/04/25 03:09:20;;;;;;;12.65;2.70;;;5.80;99.90;;;;;;5071584;28;20127;-82
2023/04/25 03:12:15;;;;;;;18.15;3.03;;;5.80;99.90;;;;;;5089667;28;20135;-81
2023/04/25 03:18:53;;;;;;;14.55;2.78;;;5.80;99.90;;;;;;5112345;28;20046;-83
2023/04/25 03:21:40;;;;;;;17.92;3.50;;;5.80;99.90;;;;;;5111712;28;20038;-83
2023/04/25 03:24:26;;;;;;;15.23;3.38;;;5.80;99.90;;;;;;5054563;28;20122;-83
2023/04/25 03:27:19;;;;;;;17.20;3.25;;;5.80;99.90;;;;;;5028168;28;20600;-81
2023/04/25 03:30:56;;;;;;;11.75;2.72;;;5.80;99.90;;;;;;4960208;28;20113;-82
2023/04/25 03:34:11;;;;;;;9.50;2.85;;;5.80;99.90;;;;;;4938435;28;20066;-82
2023/04/25 03:37:40;;;;;;;13.65;2.92;;;5.80;99.90;;;;;;5028629;28;20129;-82
2023/04/25 03:43:46;;;;;;;13.45;2.97;;;5.80;99.90;;;;;;5017272;28;20060;-81
2023/04/25 03:47:06;;;;;;;16.92;3.03;;;5.80;99.90;;;;;;5027565;28;20417;-81
2023/04/25 03:57:14;;;;;;;13.73;2.55;;;5.70;99.90;;;;;;5014216;28;20057;-83
2023/04/25 04:00:04;;;;;;;13.50;2.70;;;5.70;99.90;;;;;;5042387;28;20053;-82
2023/04/25 04:03:32;;;;;;;12.25;2.63;;;5.70;99.90;;;;;;4950191;29;20539;-82
2023/04/25 04:06:50;;;;;;;10.52;2.63;;;5.70;99.90;;;;;;4940093;29;20919;-81
2023/04/25 04:10:30;;;;;;;15.48;3.35;;;5.60;99.90;;;;;;4941333;29;20058;-81
2023/04/25 04:13:31;;;;;;;11.80;2.50;;;5.60;99.90;;;;;;4903586;29;20605;-82
2023/04/25 04:20:15;;;;;;;15.98;3.78;;;5.60;99.90;;;;;;4928683;28;20425;-82
2023/04/25 04:26:31;;;;;;;10.32;2.53;;;5.40;99.90;;;;;;4978821;28;20057;-80
2023/04/25 04:30:13;;;;;;;9.70;2.38;;;5.30;99.90;;;;;;4989169;28;20116;-82
2023/04/25 04:33:45;;;;;;;8.40;2.17;;;5.20;99.90;;;;;;4962978;28;20054;-81
2023/04/25 04:37:28;;;;;;;14.20;3.00;;;5.20;99.90;;;;;;4988758;28;20175;-82
2023/04/25 04:43:39;;;;;;;10.23;2.60;;;5.10;99.90;;;;;;4985579;28;20061;-82
2023/04/25 04:47:06;;;;;;;16.05;3.25;;;5.20;99.90;;;;;;5008267;28;20207;-83
2023/04/25 04:50:37;;;;;;;12.45;2.78;;;5.00;99.90;;;;;;5026315;28;20056;-82
2023/04/25 04:53:49;;;;;;;10.18;2.95;;;5.20;99.90;;;;;;5019606;28;20053;-83
2023/04/25 05:03:42;;;;;;;9.85;2.83;;;5.90;99.90;;;;;;4993044;28;20050;-81
2023/04/25 05:06:50;;;;;;;13.05;3.03;;;6.70;99.90;;;;;;5004700;28;20520;-83
2023/04/25 05:09:58;;;;;;;12.65;2.47;;;7.40;99.90;;;;;;5011964;28;20053;-81
2023/04/25 05:13:35;;;;;;;11.18;2.45;;;7.50;99.90;;;;;;5013836;28;20064;-82
2023/04/25 05:19:50;;;;;;;9.40;2.45;;;8.40;99.90;;;;;;5004242;28;20049;-82
2023/04/25 05:22:59;;;;;;;8.48;2.22;;;8.30;99.90;;;;;;4984831;28;20184;-81
2023/04/25 05:26:30;;;;;;;6.57;1.88;;;8.80;99.90;;;;;;5004627;28;20184;-80
2023/04/25 05:29:15;;;;;;;11.20;2.25;;;8.90;99.90;;;;;;5042382;28;20494;-82
2023/04/25 05:32:00;;;;;;;10.68;2.28;;;8.30;99.90;;;;;;5087618;28;20051;-80
2023/04/25 05:34:25;;;;;;;7.15;2.38;;;7.80;99.90;;;;;;5088725;28;20044;-81
2023/04/25 05:37:01;;;;;;;12.35;2.53;;;7.30;99.90;;;;;;5038373;28;20088;-82
2023/04/25 05:39:33;;;;;;;6.90;2.20;;;6.80;99.90;;;;;;5057873;28;20072;-80
2023/04/25 05:42:23;;;;;;;8.27;2.10;;;6.60;99.90;;;;;;5056564;28;20063;-82
2023/04/25 05:52:18;;;;;;;8.30;2.05;;;6.30;99.90;;;;;;5027152;28;20045;-82
2023/04/25 05:55:39;;;;;;;11.48;2.30;;;6.30;99.90;;;;;;5013992;28;20053;-82
2023/04/25 05:58:59;;;;;;;7.25;2.08;;;6.60;99.90;;;;;;5026347;28;20087;-82
2023/04/25 06:05:12;;;;;;;6.97;2.25;;;9.10;99.90;;;;;;5021312;28;20053;-82
2023/04/25 06:07:48;;;;;;;12.25;2.58;;;10.20;99.90;;;;;;4980535;28;20072;-81
2023/04/25 06:10:43;;;;;;;11.32;2.55;;;10.20;98.90;;;;;;5054454;28;20063;-81
2023/04/25 06:14:28;;;;;;;13.27;2.47;;;10.30;98.20;;;;;;5086119;28;20059;-81
2023/04/25 06:17:26;;;;;;;8.93;3.05;;;10.70;97.20;;;;;;5094412;28;20112;-82
2023/04/25 06:20:33;;;;;;;6.47;1.75;;;10.80;98.30;;;;;;5079669;28;20048;-81
2023/04/25 06:27:47;;;;;;;8.73;2.95;;;11.40;96.70;;;;;;5050020;28;20792;-83
2023/04/25 06:31:03;;;;;;;7.90;2.10;;;11.80;96.00;;;;;;4993434;28;20150;-81
2023/04/25 06:34:27;;;;;;;11.68;2.33;;;11.60;95.80;;;;;;5022204;28;20452;-84
2023/04/25 06:38:06;;;;;;;6.95;2.70;;;11.60;95.40;;;;;;5029416;28;20048;-84
2023/04/25 06:40:40;;;;;;;8.57;1.98;;;10.80;95.80;;;;;;5005548;28;20622;-82
2023/04/25 06:43:05;;;;;;;7.88;2.55;;;9.60;98.40;;;;;;4972171;28;20054;-84
2023/04/25 06:45:31;;;;;;;10.77;2.20;;;9.70;98.80;;;;;;4993891;28;20045;-84
2023/04/25 06:47:58;;;;;;;8.90;1.92;;;9.80;99.60;;;;;;4995842;28;20053;-83
2023/04/25 06:50:24;;;;;;;8.80;2.25;;;10.10;98.70;;;;;;5025791;28;20132;-83
2023/04/25 06:52:50;;;;;;;9.00;2.03;;;10.10;97.50;;;;;;5012759;28;20107;-82
2023/04/25 06:55:17;;;;;;;8.70;1.98;;;11.10;96.60;;;;;;5011597;28;20646;-83
2023/04/25 06:57:43;;;;;;;8.38;2.08;;;12.20;96.50;;;;;;4994787;28;20045;-83
2023/04/25 07:00:09;;;;;;;9.40;2.05;;;12.10;95.70;;;;;;5012169;28;20205;-85
2023/04/25 07:02:35;;;;;;;7.95;1.80;;;12.30;94.30;;;;;;5012186;28;20075;-84
2023/04/25 07:05:03;;;;;;;9.48;1.98;;;12.40;94.90;;;;;;5011768;28;20485;-86
2023/04/25 07:07:30;;;;;;;7.45;1.98;;;11.40;93.90;;;;;;4995553;28;20057;-86
2023/04/25 07:09:56;;;;;;;6.25;1.95;;;11.60;95.20;;;;;;5011684;28;20060;-85
2023/04/25 07:12:21;;;;;;;9.60;2.15;;;11.50;94.40;;;;;;5010743;28;20476;-84
2023/04/25 07:14:47;;;;;;;6.15;2.13;;;10.50;95.00;;;;;;5010058;28;20528;-84
2023/04/25 07:17:13;;;;;;;6.97;2.22;;;11.20;95.10;;;;;;5044558;28;20500;-84
2023/04/25 07:19:39;;;;;;;6.93;2.50;;;11.40;96.10;;;;;;5080237;28;20075;-84
2023/04/25 07:22:06;;;;;;;9.02;1.88;;;11.30;95.60;;;;;;5049882;28;20052;-83
2023/04/25 07:24:32;;;;;;;7.43;2.08;;;11.70;93.70;;;;;;5067099;28;20093;-84
2023/04/25 07:26:59;;;;;;;8.25;1.98;;;12.20;94.70;;;;;;5067221;28;20048;-85
2023/04/25 07:29:25;;;;;;;6.30;1.75;;;10.60;92.70;;;;;;5068096;28;20056;-85
2023/04/25 07:31:52;;;;;;;4.60;1.50;;;9.90;96.00;;;;;;5100382;28;20040;-86
2023/04/25 07:34:18;;;;;;;9.45;1.83;;;9.30;96.30;;;;;;5101930;28;20048;-86
2023/04/25 07:36:44;;;;;;;9.80;2.10;;;9.00;97.50;;;;;;5101041;28;20067;-85
2023/04/25 07:39:10;;;;;;;11.95;2.05;;;9.30;98.80;;;;;;5066004;28;20080;-85
2023/04/25 07:41:36;;;;;;;10.20;2.10;;;10.20;98.50;;;;;;5099362;28;20079;-84
2023/04/25 07:44:02;;;;;;;8.02;1.60;;;10.80;97.60;;;;;;5102352;28;20052;-85
2023/04/25 07:46:27;;;;;;;6.90;1.80;;;10.30;95.80;;;;;;5082832;28;20890;-85
2023/04/25 07:48:55;;;;;;;6.75;1.60;;;12.40;93.00;;;;;;5067141;28;20074;-85
2023/04/25 07:51:22;;;;;;;6.22;1.35;;;12.20;94.50;;;;;;5067376;28;20063;-83
2023/04/25 07:53:47;;;;;;;7.53;1.38;;;13.70;92.50;;;;;;5107349;28;20059;-82
2023/04/25 07:56:16;;;;;;;7.80;1.48;;;13.20;91.50;;;;;;5093368;28;20051;-82
2023/04/25 07:59:05;;;;;;;9.38;2.00;;;12.70;92.00;;;;;;5059730;28;20185;-82
2023/04/25 08:01:31;;;;;;;5.25;1.30;;;11.90;92.60;;;;;;5091841;28;20047;-82
2023/04/25 08:03:58;;;;;;;7.57;1.52;;;11.00;92.50;;;;;;5075712;28;20047;-82
2023/04/25 08:06:43;;;;;;;5.25;1.45;;;10.70;90.80;;;;;;5109656;28;20104;-81
2023/04/25 08:09:09;;;;;;;4.88;1.17;;;10.40;91.50;;;;;;5078660;28;20514;-87
2023/04/25 08:11:42;;;;;;;4.32;1.40;;;10.30;93.10;;;;;;5057032;28;20408;-88
2023/04/25 08:14:11;;;;;;;4.65;1.80;;;10.40;94.50;;;;;;5074074;28;20090;-89
2023/04/25 08:16:38;;;;;;;7.60;1.45;;;10.30;93.40;;;;;;5057099;28;20040;-81
2023/04/25 08:19:05;;;;;;;6.28;1.45;;;10.40;94.30;;;;;;5055617;28;20063;-82
2023/04/25 08:21:32;;;;;;;8.73;1.63;;;10.10;94.00;;;;;;5090514;28;20083;-83
2023/04/25 08:23:58;;;;;;;3.95;1.52;;;10.30;94.50;;;;;;5088684;28;20064;-82
2023/04/25 08:26:24;;;;;;;4.38;1.35;;;10.00;94.20;;;;;;5090771;28;20074;-82
2023/04/25 08:28:57;;;;;;;4.13;1.30;;;10.10;94.40;;;;;;5071737;28;20135;-82
2023/04/25 08:31:32;;;;;;;7.55;1.60;;;10.90;94.20;;;;;;5055166;28;20047;-80
2023/04/25 08:34:08;;;;;;;5.55;2.05;;;11.00;93.10;;;;;;5085222;28;20098;-82
2023/04/25 08:36:39;;;;;;;5.38;1.27;;;11.90;92.60;;;;;;5099401;28;20100;-83
2023/04/25 08:39:06;;;;;;;5.72;1.45;;;12.50;91.80;;;;;;5082747;28;20123;-83
2023/04/25 08:41:44;;;;;;;5.47;1.35;;;12.40;90.90;;;;;;5082660;28;20467;-82
2023/04/25 08:44:13;;;;;;;6.40;1.70;;;12.20;91.10;;;;;;5072281;28;20071;-82
2023/04/25 08:46:42;;;;;;;6.80;1.80;;;11.90;91.40;;;;;;5096732;28;20043;-87
2023/04/25 08:49:11;;;;;;;6.03;1.35;;;12.50;91.30;;;;;;5076950;28;20508;-81
2023/04/25 08:51:45;;;;;;;6.03;1.35;;;13.00;91.90;;;;;;5082354;28;20162;-82
2023/04/25 08:54:12;;;;;;;5.40;1.42;;;11.80;92.60;;;;;;5079367;28;20113;-83
2023/04/25 08:56:47;;;;;;;2.05;0.90;;;10.70;93.80;;;;;;5086555;28;20071;-82
2023/04/25 08:59:13;;;;;;;5.55;1.15;;;10.00;95.70;;;;;;5096356;28;20407;-81
2023/04/25 09:01:39;;;;;;;3.53;0.98;;;9.20;98.80;;;;;;5073610;28;20043;-82
2023/04/25 09:04:05;;;;;;;2.05;0.98;;;8.60;99.90;;;;;;5042442;28;20058;-81
2023/04/25 09:06:31;;;;;;;2.90;1.00;;;8.70;99.90;;;;;;5099027;28;20119;-80
2023/04/25 09:09:15;;;;;;;4.93;1.17;;;8.80;99.90;;;;;;5082160;28;20081;-81
2023/04/25 09:11:41;;;;;;;3.40;1.00;;;8.90;99.90;;;;;;5101965;28;20043;-81
2023/04/25 09:14:20;;;;;;;2.88;0.90;;;8.90;99.90;;;;;;5071667;28;20048;-80
2023/04/25 09:17:03;;;;;;;2.45;0.85;;;9.30;99.90;;;;;;5081362;28;20175;-83
2023/04/25 09:19:29;;;;;;;4.75;1.10;;;10.50;99.90;;;;;;5097827;28;20549;-81
2023/04/25 09:21:56;;;;;;;3.47;1.10;;;10.80;97.90;;;;;;5098357;28;20054;-81
2023/04/25 09:24:34;;;;;;;6.63;1.38;;;10.60;98.10;;;;;;5103357;28;20059;-81
2023/04/25 09:27:02;;;;;;;5.40;1.20;;;9.70;96.40;;;;;;5109919;28;20452;-81
2023/04/25 09:29:32;;;;;;;3.85;1.00;;;9.90;98.60;;;;;;5090957;28;20293;-81
2023/04/25 09:32:14;;;;;;;2.97;0.88;;;10.10;99.60;;;;;;5091632;28;20064;-81
2023/04/25 09:34:42;;;;;;;3.45;1.02;;;9.90;98.10;;;;;;5109341;28;20066;-81
2023/04/25 09:37:09;;;;;;;5.50;1.00;;;10.10;98.30;;;;;;5092098;28;20126;-80
2023/04/25 09:39:35;;;;;;;3.50;1.08;;;10.40;95.10;;;;;;5075818;28;20062;-80
2023/04/25 09:42:02;;;;;;;5.07;1.25;;;10.70;95.80;;;;;;5094849;28;20051;-81
2023/04/25 09:44:28;;;;;;;4.78;1.60;;;10.40;94.90;;;;;;5111630;28;20058;-80
2023/04/25 09:46:54;;;;;;;5.50;1.25;;;10.40;96.10;;;;;;5108523;28;20052;-82
2023/04/25 09:49:23;;;;;;;8.68;1.40;;;11.30;95.00;;;;;;5074604;28;20047;-81
2023/04/25 09:51:58;;;;;;;4.35;1.38;;;12.50;93.40;;;;;;5109632;28;20411;-80
2023/04/25 09:54:24;;;;;;;4.45;1.15;;;12.10;93.70;;;;;;5107955;28;20050;-80
2023/04/25 09:56:52;;;;;;;5.40;1.40;;;11.90;91.60;;;;;;5108050;28;20042;-81
2023/04/25 09:59:22;;;;;;;5.28;1.50;;;12.70;94.10;;;;;;5091271;28;20046;-82
2023/04/25 10:01:50;;;;;;;5.93;2.17;;;12.90;90.80;;;;;;5091591;28;20126;-81
2023/04/25 10:04:25;;;;;;;3.28;1.15;;;12.60;90.30;;;;;;5092382;28;20132;-82
2023/04/25 10:06:53;;;;;;;8.55;1.65;;;12.90;91.70;;;;;;5104362;28;20052;-80
2023/04/25 10:09:22;;;;;;;6.70;1.70;;;11.50;92.60;;;;;;5089296;28;20079;-80
2023/04/25 10:11:48;;;;;;;4.28;1.75;;;9.90;98.70;;;;;;5071380;28;20570;-83
2023/04/25 10:14:14;;;;;;;5.25;1.65;;;8.50;99.90;;;;;;5045987;28;20083;-83
2023/04/25 10:16:40;;;;;;;4.30;1.27;;;8.30;99.90;;;;;;5098008;28;20711;-84
2023/04/25 10:19:06;;;;;;;6.57;1.55;;;7.40;99.90;;;;;;5062954;28;20083;-84
2023/04/25 10:21:32;;;;;;;6.47;2.20;;;7.80;99.90;;;;;;5099113;28;20671;-84
2023/04/25 10:23:57;;;;;;;7.63;1.60;;;7.80;99.90;;;;;;5078819;28;20047;-84
2023/04/25 10:26:23;;;;;;;4.30;1.52;;;8.30;99.90;;;;;;5064501;28;20475;-86
2023/04/25 10:29:00;;;;;;;9.60;2.60;;;8.70;99.90;;;;;;5061771;28;20058;-88
2023/04/25 10:31:26;;;;;;;6.97;1.52;;;9.30;99.90;;;;;;5088120;28;20040;-83
2023/04/25 10:33:52;;;;;;;7.60;1.70;;;9.70;99.90;;;;;;5080854;28;20048;-85
2023/04/25 10:36:18;;;;;;;6.32;1.90;;;10.30;99.90;;;;;;5098972;28;20051;-83
2023/04/25 10:38:45;;;;;;;6.57;1.63;;;10.90;99.90;;;;;;5065057;28;20499;-84
2023/04/25 10:41:11;;;;;;;9.13;1.83;;;11.40;99.90;;;;;;5071990;28;20054;-85
2023/04/25 10:43:59;;;;;;;6.18;1.70;;;11.60;99.90;;;;;;5085145;28;20587;-85
2023/04/25 10:46:31;;;;;;;5.50;1.60;;;12.20;99.90;;;;;;5101416;28;20056;-82
2023/04/25 10:48:58;;;;;;;4.85;1.45;;;12.30;98.10;;;;;;5087266;28;20052;-83
2023/04/25 10:51:30;;;;;;;4.75;1.75;;;12.10;95.40;;;;;;5083346;28;20503;-83
2023/04/25 10:53:57;;;;;;;6.85;1.60;;;11.70;92.90;;;;;;5093043;28;20048;-84
2023/04/25 10:56:25;;;;;;;7.88;1.83;;;11.10;94.50;;;;;;5076722;28;20050;-84
2023/04/25 10:58:50;;;;;;;6.72;1.52;;;10.70;94.70;;;;;;5085314;28;20546;-84
2023/04/25 11:01:20;;;;;;;7.13;1.80;;;10.50;98.10;;;;;;5085131;28;20136;-82
2023/04/25 11:03:50;;;;;;;7.60;1.70;;;10.50;98.30;;;;;;5092279;28;20456;-82
2023/04/25 11:06:42;;;;;;;6.35;2.00;;;10.90;98.70;;;;;;5075553;28;20059;-83
2023/04/25 11:09:13;;;;;;;6.30;1.75;;;11.40;93.60;;;;;;5074470;28;20067;-82
2023/04/25 11:11:39;;;;;;;5.07;1.55;;;10.60;96.20;;;;;;5086161;28;20126;-84
2023/04/25 11:14:04;;;;;;;6.93;1.40;;;10.70;94.30;;;;;;5094893;28;20107;-82
2023/04/25 11:16:32;;;;;;;6.95;1.70;;;10.70;95.40;;;;;;5086273;28;20087;-82
2023/04/25 11:18:58;;;;;;;4.10;1.20;;;10.70;95.00;;;;;;5098683;28;20036;-81
2023/04/25 11:21:26;;;;;;;9.05;2.10;;;10.60;95.40;;;;;;5076604;28;20132;-82
2023/04/25 11:23:51;;;;;;;7.10;1.30;;;10.80;95.00;;;;;;5102879;28;20156;-82
2023/04/25 11:26:20;;;;;;;5.35;1.55;;;10.30;94.50;;;;;;5091968;28;20464;-90
2023/04/25 11:28:46;;;;;;;6.30;1.73;;;10.00;96.20;;;;;;5073565;28;20131;-87
2023/04/25 11:31:12;;;;;;;7.40;1.60;;;9.50;96.40;;;;;;5074184;28;20083;-86
2023/04/25 11:33:45;;;;;;;10.10;1.95;;;9.70;98.30;;;;;;5106630;28;20529;-84
2023/04/25 11:36:11;;;;;;;7.05;1.83;;;9.50;98.10;;;;;;5059535;28;20044;-88
2023/04/25 11:38:38;;;;;;;6.70;1.73;;;9.40;98.20;;;;;;5091833;28;20054;-91
2023/04/25 11:41:11;;;;;;;8.25;1.85;;;9.20;99.90;;;;;;5074800;28;20044;-84
2023/04/25 11:43:38;;;;;;;6.20;1.77;;;9.20;99.90;;;;;;5073515;28;20059;-85
2023/04/25 11:46:08;;;;;;;8.15;1.75;;;9.10;99.90;;;;;;5041096;28;20060;-85
2023/04/25 11:48:41;;;;;;;9.07;2.20;;;9.50;99.90;;;;;;5074331;28;20056;-85
2023/04/25 11:51:08;;;;;;;12.93;3.35;;;9.90;99.90;;;;;;5057125;28;20048;-85
2023/04/25 11:53:33;;;;;;;5.85;2.00;;;10.20;99.90;;;;;;5041393;28;20048;-87
2023/04/25 11:55:59;;;;;;;10.27;3.53;;;10.00;99.90;;;;;;5059948;28;20128;-85
2023/04/25 11:58:28;;;;;;;8.43;1.90;;;10.30;99.90;;;;;;5075517;28;20127;-85
2023/04/25 12:00:54;;;;;;;7.78;2.20;;;10.30;98.80;;;;;;5056750;28;20048;-84
2023/04/25 12:03:20;;;;;;;10.90;2.65;;;10.50;99.90;;;;;;5040375;28;20125;-85
2023/04/25 12:05:46;;;;;;;7.53;1.70;;;10.80;99.90;;;;;;5056484;28;20055;-84
2023/04/25 12:08:15;;;;;;;6.07;1.92;;;11.30;99.90;;;;;;5056529;28;20050;-85
2023/04/25 12:10:44;;;;;;;5.72;1.73;;;11.60;99.70;;;;;;5073272;28;20128;-83
2023/04/25 12:13:20;;;;;;;7.18;1.90;;;11.50;97.00;;;;;;5040134;28;20067;-84
2023/04/25 12:15:46;;;;;;;6.20;1.60;;;10.90;94.30;;;;;;5073565;28;20048;-84
2023/04/25 12:18:12;;;;;;;5.82;1.70;;;11.60;96.30;;;;;;5057174;28;20055;-83
2023/04/25 12:20:44;;;;;;;5.03;1.40;;;11.10;93.40;;;;;;5058234;28;20059;-86
2023/04/25 12:23:11;;;;;;;4.68;1.42;;;11.10;90.70;;;;;;5039473;28;20048;-86
2023/04/25 12:25:41;;;;;;;2.30;1.20;;;11.00;91.20;;;;;;5071616;28;20052;-84
2023/04/25 12:28:15;;;;;;;5.13;1.48;;;10.90;91.20;;;;;;5073530;28;20043;-84
2023/04/25 12:30:57;;;;;;;5.72;1.65;;;10.80;90.10;;;;;;5060465;28;20055;-90
2023/04/25 12:33:23;;;;;;;4.25;1.65;;;11.10;91.20;;;;;;5077138;28;20055;-86
2023/04/25 12:35:59;;;;;;;2.65;1.10;;;11.20;92.00;;;;;;5094458;28;20055;-90
2023/04/25 12:38:34;;;;;;;4.70;1.52;;;10.80;90.00;;;;;;5077618;28;20485;-86
2023/04/25 12:40:59;;;;;;;;;;;11.10;93.00;;;;;;5108068;28;20475;-89
2023/04/25 12:43:25;;;;;;;5.93;1.50;;;11.50;92.10;;;;;;5087601;28;19982;-89
2023/04/25 12:45:52;;;;;;;4.82;1.48;;;11.70;92.90;;;;;;5069985;28;20047;-89
2023/04/25 12:48:20;;;;;;;7.68;1.77;;;11.20;91.60;;;;;;5057587;28;20055;-87
2023/04/25 12:50:49;;;;;;;4.38;1.52;;;10.50;93.90;;;;;;5059126;28;20495;-88
2023/04/25 12:53:18;;;;;;;7.97;2.13;;;10.20;96.20;;;;;;5077436;28;20044;-90
2023/04/25 12:55:47;;;;;;;3.95;1.48;;;9.90;94.10;;;;;;5078348;28;20107;-88
2023/04/25 12:58:18;;;;;;;6.82;2.10;;;10.10;94.60;;;;;;5090689;28;20043;-87
2023/04/25 13:00:44;;;;;;;6.65;1.55;;;10.30;94.70;;;;;;5080593;28;20049;-89
2023/04/25 13:03:10;;;;;;;5.82;1.95;;;10.50;95.60;;;;;;5065565;28;20051;-89
2023/04/25 13:05:37;;;;;;;7.10;1.70;;;10.40;94.00;;;;;;5055554;28;20487;-86
2023/04/25 13:08:04;;;;;;;5.10;1.42;;;10.20;93.00;;;;;;5081555;28;20122;-88
2023/04/25 13:10:29;;;;;;;6.45;1.50;;;9.70;92.90;;;;;;5070130;28;20126;-85
2023/04/25 13:12:55;;;;;;;7.70;1.77;;;9.70;94.20;;;;;;5078699;28;20118;-85
2023/04/25 13:15:21;;;;;;;7.40;1.70;;;9.80;94.60;;;;;;5104526;28;20048;-85
2023/04/25 13:17:47;;;;;;;11.18;1.90;;;9.60;96.00;;;;;;5073299;28;20047;-86
2023/04/25 13:20:14;;;;;;;9.90;1.60;;;9.70;95.80;;;;;;5108248;28;20670;-84
2023/04/25 13:22:40;;;;;;;6.40;1.63;;;10.00;95.80;;;;;;5071023;28;20048;-85
2023/04/25 13:25:07;;;;;;;6.70;1.50;;;9.80;95.00;;;;;;5065485;28;20043;-86
2023/04/25 13:27:33;;;;;;;6.68;1.42;;;10.20;94.50;;;;;;5087669;28;20043;-86
2023/04/25 13:30:01;;;;;;;6.88;1.27;;;10.10;93.30;;;;;;5084212;28;20062;-86
2023/04/25 13:32:26;;;;;;;5.70;1.50;;;10.40;92.30;;;;;;5096943;28;20055;-87
2023/04/25 13:34:52;;;;;;;4.43;1.58;;;10.40;90.00;;;;;;5067178;28;20052;-87
2023/04/25 13:37:18;;;;;;;5.78;1.35;;;9.50;91.20;;;;;;5054665;28;20059;-82
2023/04/25 13:39:44;;;;;;;6.32;1.65;;;10.70;91.60;;;;;;5072431;28;20510;-89
2023/04/25 13:42:10;;;;;;;3.28;1.30;;;10.60;91.70;;;;;;5072075;28;20399;-87
2023/04/25 13:44:36;;;;;;;9.07;1.65;;;9.60;92.50;;;;;;5072445;28;20166;-87
2023/04/25 13:47:02;;;;;;;6.00;1.63;;;10.20;92.60;;;;;;5072513;28;20654;-85
2023/04/25 13:49:29;;;;;;;7.90;1.50;;;10.10;92.40;;;;;;5055623;28;20077;-83
2023/04/25 13:51:55;;;;;;;9.35;1.80;;;10.10;93.20;;;;;;5098951;28;20044;-86
2023/04/25 13:54:21;;;;;;;4.85;1.92;;;10.10;94.60;;;;;;5063720;28;20047;-92
2023/04/25 13:56:48;;;;;;;9.20;1.65;;;10.10;93.40;;;;;;5081144;28;20044;-87
2023/04/25 13:59:14;;;;;;;9.75;1.85;;;11.10;94.30;;;;;;5082111;28;20047;-84
2023/04/25 14:01:52;;;;;;;7.03;2.38;;;10.20;95.40;;;;;;5097897;28;20092;-85
2023/04/25 14:04:21;;;;;;;8.45;2.10;;;10.10;95.40;;;;;;5098880;28;20083;-87
2023/04/25 14:06:46;;;;;;;8.10;1.55;;;9.80;94.50;;;;;;5046820;28;20086;-86
2023/04/25 14:09:13;;;;;;;5.93;1.63;;;10.20;94.20;;;;;;5098603;28;20039;-85
2023/04/25 14:11:39;;;;;;;8.65;1.90;;;9.90;93.20;;;;;;5082254;28;20104;-84
2023/04/25 14:14:05;;;;;;;9.07;1.80;;;9.50;94.40;;;;;;5082425;28;20514;-84
2023/04/25 14:16:31;;;;;;;7.65;1.55;;;9.70;95.30;;;;;;5082180;28;20051;-86
2023/04/25 14:19:09;;;;;;;6.20;1.58;;;9.50;93.00;;;;;;5067222;28;20116;-82
2023/04/25 14:21:41;;;;;;;9.10;2.15;;;9.20;95.30;;;;;;5064561;28;20055;-83
2023/04/25 14:24:08;;;;;;;4.95;1.52;;;9.00;96.40;;;;;;5075858;28;20052;-87
2023/04/25 14:26:35;;;;;;;5.53;2.80;;;9.10;97.70;;;;;;5071783;28;20054;-87
2023/04/25 14:29:01;;;;;;;6.43;2.25;;;9.00;97.50;;;;;;5088804;28;20141;-86
2023/04/25 14:31:27;;;;;;;6.47;2.38;;;9.10;98.10;;;;;;5105298;28;20060;-87
2023/04/25 14:33:53;;;;;;;6.35;1.77;;;9.40;97.90;;;;;;5073448;28;20126;-87
2023/04/25 14:36:19;;;;;;;5.18;1.55;;;9.20;96.70;;;;;;5105724;28;20408;-86
2023/04/25 14:38:45;;;;;;;9.05;2.25;;;9.30;96.90;;;;;;5083150;28;20055;-89
2023/04/25 14:41:12;;;;;;;6.32;2.15;;;9.30;97.30;;;;;;5083422;28;20058;-86
2023/04/25 14:43:40;;;;;;;7.15;1.77;;;9.70;96.30;;;;;;5074708;28;20716;-83
2023/04/25 14:46:25;;;;;;;9.48;2.90;;;9.90;96.40;;;;;;5074565;28;20056;-82
2023/04/25 14:48:58;;;;;;;6.70;1.65;;;10.20;95.00;;;;;;5057383;28;20091;-82
2023/04/25 14:51:26;;;;;;;7.95;1.80;;;10.60;94.90;;;;;;5076150;28;20052;-83
2023/04/25 14:53:52;;;;;;;7.80;1.70;;;10.60;94.90;;;;;;5075604;28;20048;-87
2023/04/25 14:56:18;;;;;;;6.95;1.75;;;10.50;94.10;;;;;;5059303;28;20445;-88
2023/04/25 14:58:45;;;;;;;5.43;1.60;;;10.30;94.10;;;;;;5059171;28;20048;-86
2023/04/25 15:01:14;;;;;;;7.95;2.47;;;9.90;92.40;;;;;;5061935;28;20039;-84
2023/04/25 15:03:48;;;;;;;8.18;1.60;;;10.00;92.90;;;;;;5100250;28;20127;-86
2023/04/25 15:06:16;;;;;;;5.10;1.48;;;10.00;92.90;;;;;;5109144;28;20040;-87
2023/04/25 15:08:48;;;;;;;8.25;1.52;;;9.90;93.30;;;;;;5102879;28;20048;-82
2023/04/25 15:11:15;;;;;;;3.75;1.50;;;9.90;93.10;;;;;;5074020;28;20059;-84
2023/04/25 15:13:42;;;;;;;6.65;2.00;;;10.20;93.40;;;;;;5067817;28;20538;-84
2023/04/25 15:16:22;;;;;;;3.45;1.40;;;10.40;93.40;;;;;;5074843;28;20070;-83
2023/04/25 15:18:59;;;;;;;8.98;1.67;;;10.40;92.20;;;;;;5090552;28;20079;-83
2023/04/25 15:21:35;;;;;;;7.20;1.67;;;10.40;91.60;;;;;;5065737;28;20063;-83
2023/04/25 15:24:18;;;;;;;5.63;1.50;;;10.50;92.50;;;;;;5074777;28;20490;-83
2023/04/25 15:26:52;;;;;;;7.38;1.77;;;10.20;91.80;;;;;;5067874;28;20048;-83
2023/04/25 15:29:24;;;;;;;4.72;1.38;;;10.00;93.70;;;;;;5082018;28;20844;-86
2023/04/25 15:31:50;;;;;;;6.22;1.65;;;9.90;92.90;;;;;;5098613;28;20055;-83